Thunder radar more information blitzortung!


Rain radar more information rain snow radar


   Es ist keine erhoehte Aufmerksamkeit aufgrund des Wetters notwendig.   -   Es gibt keine Warnungen :-).

METAR-Meldungen aus der Umgebung

Warning: A non-numeric value encountered in /mnt/web021/a1/70/5400070/htdocs/weather28/metar/metarDisplay.php on line 166 Warning: A non-numeric value encountered in /mnt/web021/a1/70/5400070/htdocs/weather28/metar/metarDisplay.php on line 166 Warning: A non-numeric value encountered in /mnt/web021/a1/70/5400070/htdocs/weather28/metar/metarDisplay.php on line 166 Warning: A non-numeric value encountered in /mnt/web021/a1/70/5400070/htdocs/weather28/metar/metarDisplay.php on line 166 Warning: A non-numeric value encountered in /mnt/web021/a1/70/5400070/htdocs/weather28/metar/metarDisplay.php on line 166
   
EBBR - Brussels International Airport, Belgium
Entfernung von der Station bis: W 14 km
Aktualisierung: 19-06-2021 19:20
Klar  
Klar  
   Wind: NO 11.1 km/h
Wind: NO 11.1 km/h
Temperatur: 20°C
Taupunkt: 16°C
Luftfeuchte: 78%
Luftdruck: 1011 hPa
Sichtbarkeit: More than 10 km
Bewölkung: Klar
EBBR 191720Z 04006KT CAVOK 20/16 Q1011 NOSIG
EBBE - Beauvechain (Bevekom), Belgium
Entfernung von der Station bis: SSO 17 km
Aktualisierung: 19-06-2021 18:55
Klar  
Klar  
   Wind: variiert Windstille
Wind: variiert Windstille
Temperatur: 21°C
Taupunkt: 17°C
Luftfeuchte: 78%
Luftdruck: 1011 hPa
Bewölkt: Klar
Sichtbarkeit: More than 10 km
Bewölkung: Klar
EBBE 191655Z AUTO //////KT 9999 NCD 21/17 Q1011 BLU
EBDT - Schaffen, Belgium
Entfernung von der Station bis: ONO 29 km
Aktualisierung: 19-06-2021 18:55
Stark bewölkt  
Stark bewölkt  
   Wind: Norden 14.8 km/h
Wind: Norden 14.8 km/h
Temperatur: 22°C
Taupunkt: 17°C
Luftfeuchte: 73%
Luftdruck: 1011 hPa
Bewölkt: Stark bewölkt
Sichtbarkeit: More than 10 km
Bewölkung: Stark bewölkt 6400 ft
EBDT 191655Z AUTO 35008KT 9999 BKN064/// 22/17 Q1011 BLU
EBAW - Antwerp/Deurne, Belgium
Entfernung von der Station bis: NNW 38 km
Aktualisierung: 19-06-2021 19:20
Klar  
Klar  
   Wind: NO 14.8 km/h
Wind: NO 14.8 km/h
Temperatur: 20°C
Taupunkt: 16°C
Luftfeuchte: 78%
Luftdruck: 1011 hPa
Sichtbarkeit: More than 10 km
Bewölkung: Klar
EBAW 191720Z 04008KT 350V060 CAVOK 20/16 Q1011 NOSIG
EBCI - Charleroi/Gosselies, Belgium
Entfernung von der Station bis: SSW 51 km
Aktualisierung: 19-06-2021 19:20
Klar  
Klar  
   Wind: NO 20.4 km/h
Wind: NO 20.4 km/h
Temperatur: 21°C
Taupunkt: 17°C
Luftfeuchte: 78%
Luftdruck: 1011 hPa
Sichtbarkeit: More than 10 km
Bewölkung: Klar
EBCI 191720Z 04011KT CAVOK 21/17 Q1011 NOSIG
EBLG - Bierset/Liege, Belgium
Entfernung von der Station bis: OSO 60 km
Aktualisierung: 19-06-2021 19:20
Klar  
Klar  
   Wind: Norden 16.7 km/h
Wind: Norden 16.7 km/h
Temperatur: 24°C
Taupunkt: 18°C
Luftfeuchte: 69%
Luftdruck: 1011 hPa
Sichtbarkeit: More than 10 km
Bewölkung: Klar
EBLG 191720Z 35009KT CAVOK 24/18 Q1011 NOSIG

Script entwickelt von  Saratoga-weather.org Angepasst für das Template von  Weerstation Leuven